Time;durP1;ratioP1;P1;durP2;ratioP2;P2;SDS_P1;SDS_P2;PMS_P1;PMS_P2;Temp;Humidity;BMP_temperature;BMP_pressure;BME280_temperature;BME280_humidity;BME280_pressure;Samples;Min_cycle;Max_cycle;Signal;HPM_P1;HPM_P2
2024/03/14 00:01:44;;;;;;;;;;;;;;;;;;5077720;28;20277;-73
2024/03/14 00:04:14;;;;;;;;;;;;;;;;;;5079085;28;19924;-75
2024/03/14 00:06:46;;;;;;;;;;;;;;;;;;5081723;28;20001;-72
2024/03/14 00:09:12;;;;;;;;;;;;;;;;;;5081917;28;19929;-72
2024/03/14 00:11:39;;;;;;;;;;;;;;;;;;5075804;28;19931;-73
2024/03/14 00:14:06;;;;;;;;;;;;;;;;;;5081225;28;19932;-73
2024/03/14 00:16:33;;;;;;;;;;;;;;;;;;5071741;28;19925;-74
2024/03/14 00:18:59;;;;;;;;;;;;;;;;;;5080123;28;20291;-73
2024/03/14 00:21:26;;;;;;;;;;;;;;;;;;5078712;28;19986;-73
2024/03/14 00:23:53;;;;;;;;;;;;;;;;;;5069840;28;19974;-71
2024/03/14 00:26:19;;;;;;;;;;;;;;;;;;5075706;28;19931;-73
2024/03/14 00:28:46;;;;;;;;;;;;;;;;;;5081543;28;19940;-73
2024/03/14 00:31:12;;;;;;;;;;;;;;;;;;5088022;28;20005;-74
2024/03/14 00:33:39;;;;;;;;;;;;;;;;;;5079589;28;19924;-72
2024/03/14 00:36:05;;;;;;;;;;;;;;;;;;5078148;28;19928;-73
2024/03/14 00:38:32;;;;;;;;;;;;;;;;;;5080838;28;20050;-73
2024/03/14 00:41:00;;;;;;;;;;;;;;;;;;5076633;28;20321;-73
2024/03/14 00:43:26;;;;;;;;;;;;;;;;;;5084565;28;19935;-73
2024/03/14 00:45:52;;;;;;;;;;;;;;;;;;5077062;28;20269;-73
2024/03/14 00:48:19;;;;;;;;;;;;;;;;;;5082375;28;19932;-74
2024/03/14 00:50:45;;;;;;;;;;;;;;;;;;5076470;28;20360;-75
2024/03/14 00:53:12;;;;;;;;;;;;;;;;;;5080615;28;20277;-73
2024/03/14 00:55:38;;;;;;;;;;;;;;;;;;5079452;28;19935;-73
2024/03/14 00:58:04;;;;;;;;;;;;;;;;;;5079910;28;19939;-73
2024/03/14 01:00:31;;;;;;;;;;;;;;;;;;5073600;28;19964;-73
2024/03/14 01:02:57;;;;;;;;;;;;;;;;;;5080770;28;19924;-72
2024/03/14 01:05:24;;;;;;;;;;;;;;;;;;5082576;28;19928;-73
2024/03/14 01:07:51;;;;;;;;;;;;;;;;;;5081684;28;19962;-73
2024/03/14 01:10:17;;;;;;;;;;;;;;;;;;5083858;28;19932;-73
2024/03/14 01:12:46;;;;;;;;;;;;;;;;;;5083613;28;19928;-73
2024/03/14 01:15:13;;;;;;;;;;;;;;;;;;5082896;28;19928;-73
2024/03/14 01:17:39;;;;;;;;;;;;;;;;;;5080413;28;19928;-72
2024/03/14 01:20:15;;;;;;;;;;;;;;;;;;5082820;28;19974;-73
2024/03/14 01:22:42;;;;;;;;;;;;;;;;;;5075788;28;20364;-73
2024/03/14 01:25:08;;;;;;;;;;;;;;;;;;5084303;28;19970;-74
2024/03/14 01:27:35;;;;;;;;;;;;;;;;;;5081307;28;19927;-73
2024/03/14 01:30:02;;;;;;;;;;;;;;;;;;5083080;28;19924;-73
2024/03/14 01:32:29;;;;;;;;;;;;;;;;;;5081890;28;20326;-73
2024/03/14 01:34:56;;;;;;;;;;;;;;;;;;5080907;28;19928;-72
2024/03/14 01:37:22;;;;;;;;;;;;;;;;;;5082497;28;19924;-73
2024/03/14 01:39:50;;;;;;;;;;;;;;;;;;5084152;28;20026;-74
2024/03/14 01:42:17;;;;;;;;;;;;;;;;;;5083744;28;19932;-74
2024/03/14 01:44:43;;;;;;;;;;;;;;;;;;5085331;28;20443;-75
2024/03/14 01:47:10;;;;;;;;;;;;;;;;;;5083791;28;19977;-74
2024/03/14 01:49:36;;;;;;;;;;;;;;;;;;5081629;28;19935;-75
2024/03/14 01:52:03;;;;;;;;;;;;;;;;;;5083633;28;19928;-73
2024/03/14 01:54:30;;;;;;;;;;;;;;;;;;5097130;28;20327;-73
2024/03/14 01:57:00;;;;;;;;;;;;;;;;;;5085661;28;19956;-73
2024/03/14 01:59:30;;;;;;;;;;;;;;;;;;5091295;28;19978;-72
2024/03/14 02:01:56;;;;;;;;;;;;;;;;;;5068834;28;19972;-73
2024/03/14 02:04:23;;;;;;;;;;;;;;;;;;5077532;28;19955;-72
2024/03/14 02:06:50;;;;;;;;;;;;;;;;;;5078598;28;20464;-73
2024/03/14 02:09:22;;;;;;;;;;;;;;;;;;5085588;28;20128;-73
2024/03/14 02:11:48;;;;;;;;;;;;;;;;;;5089537;28;19928;-73
2024/03/14 02:14:15;;;;;;;;;;;;;;;;;;5079960;28;19986;-73
2024/03/14 02:16:42;;;;;;;;;;;;;;;;;;5079555;28;19932;-73
2024/03/14 02:19:08;;;;;;;;;;;;;;;;;;5082087;28;20416;-72
2024/03/14 02:21:34;;;;;;;;;;;;;;;;;;5081453;28;20394;-74
2024/03/14 02:24:02;;;;;;;;;;;;;;;;;;5089917;28;19924;-74
2024/03/14 02:26:29;;;;;;;;;;;;;;;;;;5083264;28;19932;-74
2024/03/14 02:28:56;;;;;;;;;;;;;;;;;;5081629;28;19935;-73
2024/03/14 02:31:22;;;;;;;;;;;;;;;;;;5081768;28;19928;-72
2024/03/14 02:33:49;;;;;;;;;;;;;;;;;;5082696;28;20384;-74
2024/03/14 02:36:15;;;;;;;;;;;;;;;;;;5084132;28;19928;-72
2024/03/14 02:38:41;;;;;;;;;;;;;;;;;;5082198;28;20305;-73
2024/03/14 02:41:08;;;;;;;;;;;;;;;;;;5082438;28;19931;-73
2024/03/14 02:43:34;;;;;;;;;;;;;;;;;;5077480;28;20423;-74
2024/03/14 02:46:01;;;;;;;;;;;;;;;;;;5080397;28;20649;-73
2024/03/14 02:48:27;;;;;;;;;;;;;;;;;;5080116;28;20018;-73
2024/03/14 02:50:54;;;;;;;;;;;;;;;;;;5081649;28;20464;-72
2024/03/14 02:53:20;;;;;;;;;;;;;;;;;;5078168;28;19970;-73
2024/03/14 02:55:47;;;;;;;;;;;;;;;;;;5089257;28;19951;-73
2024/03/14 02:58:13;;;;;;;;;;;;;;;;;;5079661;28;19925;-73
2024/03/14 03:00:39;;;;;;;;;;;;;;;;;;5079117;28;19963;-72
2024/03/14 03:03:06;;;;;;;;;;;;;;;;;;5078038;28;19925;-75
2024/03/14 03:05:33;;;;;;;;;;;;;;;;;;5076361;28;20462;-73
2024/03/14 03:07:59;;;;;;;;;;;;;;;;;;5077330;28;20295;-72
2024/03/14 03:10:26;;;;;;;;;;;;;;;;;;5080666;28;20365;-73
2024/03/14 03:12:52;;;;;;;;;;;;;;;;;;5082548;28;19928;-73
2024/03/14 03:15:19;;;;;;;;;;;;;;;;;;5080917;28;19924;-74
2024/03/14 03:17:46;;;;;;;;;;;;;;;;;;5089407;28;19954;-72
2024/03/14 03:20:13;;;;;;;;;;;;;;;;;;5081647;28;19949;-72
2024/03/14 03:25:25;;;;;;;;;;;;;;;;;;5080806;28;19924;-72
2024/03/14 03:27:51;;;;;;;;;;;;;;;;;;5078685;28;19990;-73
2024/03/14 03:30:17;;;;;;;;;;;;;;;;;;5081821;28;19928;-72
2024/03/14 03:32:44;;;;;;;;;;;;;;;;;;5079884;28;20024;-71
2024/03/14 03:35:11;;;;;;;;;;;;;;;;;;5081169;28;19924;-75
2024/03/14 03:37:37;;;;;;;;;;;;;;;;;;5080799;28;19929;-71
2024/03/14 03:40:15;;;;;;;;;;;;;;;;;;5079814;28;19924;-74
2024/03/14 03:42:41;;;;;;;;;;;;;;;;;;5081236;28;19978;-72
2024/03/14 03:45:10;;;;;;;;;;;;;;;;;;5088352;28;19963;-73
2024/03/14 03:47:37;;;;;;;;;;;;;;;;;;5081755;28;20422;-71
2024/03/14 03:50:03;;;;;;;;;;;;;;;;;;5079977;28;19936;-73
2024/03/14 03:52:33;;;;;;;;;;;;;;;;;;5080025;28;20400;-72
2024/03/14 03:54:59;;;;;;;;;;;;;;;;;;5080454;28;20067;-72
2024/03/14 03:57:26;;;;;;;;;;;;;;;;;;5079429;28;19943;-74
2024/03/14 03:59:52;;;;;;;;;;;;;;;;;;5080444;28;19935;-70
2024/03/14 04:02:18;;;;;;;;;;;;;;;;;;5086668;28;20285;-74
2024/03/14 04:04:45;;;;;;;;;;;;;;;;;;5078455;28;20376;-72
2024/03/14 04:07:14;;;;;;;;;;;;;;;;;;5077582;28;19932;-76
2024/03/14 04:09:44;;;;;;;;;;;;;;;;;;5075828;28;19924;-72
2024/03/14 04:12:11;;;;;;;;;;;;;;;;;;5079306;28;19967;-72
2024/03/14 04:14:40;;;;;;;;;;;;;;;;;;5071157;28;20339;-72
2024/03/14 04:17:07;;;;;;;;;;;;;;;;;;5080178;28;20003;-73
2024/03/14 04:19:34;;;;;;;;;;;;;;;;;;5099894;28;19934;-72
2024/03/14 04:22:01;;;;;;;;;;;;;;;;;;5078047;28;20376;-72
2024/03/14 04:24:27;;;;;;;;;;;;;;;;;;5082106;28;19938;-71
2024/03/14 04:26:55;;;;;;;;;;;;;;;;;;5081184;28;19924;-73
2024/03/14 04:29:22;;;;;;;;;;;;;;;;;;5079921;28;19925;-72
2024/03/14 04:31:49;;;;;;;;;;;;;;;;;;5079705;28;19931;-73
2024/03/14 04:34:16;;;;;;;;;;;;;;;;;;5081367;28;19929;-74
2024/03/14 04:36:42;;;;;;;;;;;;;;;;;;5090975;28;19935;-73
2024/03/14 04:39:09;;;;;;;;;;;;;;;;;;5085154;28;19963;-72
2024/03/14 04:41:35;;;;;;;;;;;;;;;;;;5087163;28;19925;-74
2024/03/14 04:44:05;;;;;;;;;;;;;;;;;;5083691;28;19928;-74
2024/03/14 04:46:32;;;;;;;;;;;;;;;;;;5087077;28;19924;-73
2024/03/14 04:48:58;;;;;;;;;;;;;;;;;;5085011;28;19928;-73
2024/03/14 04:51:25;;;;;;;;;;;;;;;;;;5083871;28;19951;-73
2024/03/14 04:53:51;;;;;;;;;;;;;;;;;;5075027;28;19931;-74
2024/03/14 04:56:17;;;;;;;;;;;;;;;;;;5084506;28;19932;-73
2024/03/14 04:58:45;;;;;;;;;;;;;;;;;;5091978;28;20281;-72
2024/03/14 05:01:11;;;;;;;;;;;;;;;;;;5080582;28;20295;-73
2024/03/14 05:03:38;;;;;;;;;;;;;;;;;;5073548;28;19932;-73
2024/03/14 05:06:04;;;;;;;;;;;;;;;;;;5084484;28;19954;-74
2024/03/14 05:08:31;;;;;;;;;;;;;;;;;;5087309;28;19928;-73
2024/03/14 05:10:57;;;;;;;;;;;;;;;;;;5086150;28;19928;-73
2024/03/14 05:13:23;;;;;;;;;;;;;;;;;;5085182;28;20355;-73
2024/03/14 05:15:54;;;;;;;;;;;;;;;;;;5081675;28;20039;-73
2024/03/14 05:18:21;;;;;;;;;;;;;;;;;;5084083;28;19928;-70
2024/03/14 05:20:48;;;;;;;;;;;;;;;;;;5078172;28;19931;-72
2024/03/14 05:23:14;;;;;;;;;;;;;;;;;;5083710;28;19933;-72
2024/03/14 05:25:42;;;;;;;;;;;;;;;;;;5091570;28;20024;-73
2024/03/14 05:28:08;;;;;;;;;;;;;;;;;;5083887;28;19935;-73
2024/03/14 05:30:36;;;;;;;;;;;;;;;;;;5085920;28;19951;-73
2024/03/14 05:33:03;;;;;;;;;;;;;;;;;;5083963;28;19968;-74
2024/03/14 05:35:29;;;;;;;;;;;;;;;;;;5086088;28;19927;-73
2024/03/14 05:37:56;;;;;;;;;;;;;;;;;;5083917;28;20031;-73
2024/03/14 05:40:22;;;;;;;;;;;;;;;;;;5083992;28;19928;-72
2024/03/14 05:42:52;;;;;;;;;;;;;;;;;;5082366;28;19924;-73
2024/03/14 05:45:19;;;;;;;;;;;;;;;;;;5074373;28;20366;-74
2024/03/14 05:47:45;;;;;;;;;;;;;;;;;;5084456;28;19924;-74
2024/03/14 05:50:11;;;;;;;;;;;;;;;;;;5083457;28;20257;-72
2024/03/14 05:52:41;;;;;;;;;;;;;;;;;;5081121;28;20014;-73
2024/03/14 05:55:10;;;;;;;;;;;;;;;;;;5080415;28;19932;-73
2024/03/14 05:57:37;;;;;;;;;;;;;;;;;;5082802;28;19933;-74
2024/03/14 06:00:04;;;;;;;;;;;;;;;;;;5087953;28;19924;-71
2024/03/14 06:02:37;;;;;;;;;;;;;;;;;;5082821;28;19928;-73
2024/03/14 06:05:03;;;;;;;;;;;;;;;;;;5085899;28;19931;-73
2024/03/14 06:07:30;;;;;;;;;;;;;;;;;;5081139;28;19935;-73
2024/03/14 06:09:56;;;;;;;;;;;;;;;;;;5079859;28;19928;-72
2024/03/14 06:12:23;;;;;;;;;;;;;;;;;;5077336;28;19950;-74
2024/03/14 06:14:49;;;;;;;;;;;;;;;;;;5085519;28;19928;-73
2024/03/14 06:17:15;;;;;;;;;;;;;;;;;;5078872;28;19928;-75
2024/03/14 06:19:42;;;;;;;;;;;;;;;;;;5080252;28;19966;-73
2024/03/14 06:22:09;;;;;;;;;;;;;;;;;;5082453;28;20006;-73
2024/03/14 06:24:36;;;;;;;;;;;;;;;;;;5083007;28;19947;-73
2024/03/14 06:27:02;;;;;;;;;;;;;;;;;;5083996;28;19928;-73
2024/03/14 06:29:29;;;;;;;;;;;;;;;;;;5082964;28;19924;-73
2024/03/14 06:31:55;;;;;;;;;;;;;;;;;;5073186;28;19932;-73
2024/03/14 06:34:21;;;;;;;;;;;;;;;;;;5078884;28;19924;-74
2024/03/14 06:36:48;;;;;;;;;;;;;;;;;;5080456;28;19933;-73
2024/03/14 06:39:17;;;;;;;;;;;;;;;;;;5083495;28;19924;-73
2024/03/14 06:41:43;;;;;;;;;;;;;;;;;;5081651;28;20373;-74
2024/03/14 06:44:11;;;;;;;;;;;;;;;;;;5079976;28;19939;-73
2024/03/14 06:46:39;;;;;;;;;;;;;;;;;;5079422;28;20175;-74
2024/03/14 06:49:12;;;;;;;;;;;;;;;;;;5084089;28;19928;-73
2024/03/14 06:51:38;;;;;;;;;;;;;;;;;;5083304;28;20439;-73
2024/03/14 06:54:04;;;;;;;;;;;;;;;;;;5080275;28;20335;-74
2024/03/14 06:56:31;;;;;;;;;;;;;;;;;;5078826;28;20395;-73
2024/03/14 06:58:58;;;;;;;;;;;;;;;;;;5098512;28;20018;-73
2024/03/14 07:01:24;;;;;;;;;;;;;;;;;;5078001;28;19928;-73
2024/03/14 07:03:51;;;;;;;;;;;;;;;;;;5079689;28;19924;-74
2024/03/14 07:06:23;;;;;;;;;;;;;;;;;;5076399;28;19950;-73
2024/03/14 07:08:56;;;;;;;;;;;;;;;;;;5081347;28;20002;-74
2024/03/14 07:11:22;;;;;;;;;;;;;;;;;;5081443;28;19969;-72
2024/03/14 07:13:49;;;;;;;;;;;;;;;;;;5096331;28;19973;-73
2024/03/14 07:16:23;;;;;;;;;;;;;;;;;;5155082;27;20311;-72
2024/03/14 07:18:49;;;;;;;;;;;;;;;;;;5108735;28;20019;-74
2024/03/14 07:21:16;;;;;;;;;;;;;;;;;;5100886;28;20364;-72
2024/03/14 07:23:47;;;;;;;;;;;;;;;;;;5110351;28;19924;-74
2024/03/14 07:26:17;;;;;;;;;;;;;;;;;;5099973;28;20014;-73
2024/03/14 07:28:44;;;;;;;;;;;;;;;;;;5106687;28;19924;-75
2024/03/14 07:31:10;;;;;;;;;;;;;;;;;;5105515;27;19928;-73
2024/03/14 07:33:37;;;;;;;;;;;;;;;;;;5108626;27;20022;-73
2024/03/14 07:36:05;;;;;;;;;;;;;;;;;;5107700;28;20028;-74
2024/03/14 07:38:34;;;;;;;;;;;;;;;;;;5111900;28;19961;-74
2024/03/14 07:41:00;;;;;;;;;;;;;;;;;;5110143;28;19966;-73
2024/03/14 07:43:27;;;;;;;;;;;;;;;;;;5099529;28;19954;-74
2024/03/14 07:45:53;;;;;;;;;;;;;;;;;;5111034;28;19924;-72
2024/03/14 07:48:21;;;;;;;;;;;;;;;;;;5107246;28;19934;-74
2024/03/14 07:50:50;;;;;;;;;;;;;;;;;;5114281;28;19971;-73
2024/03/14 07:53:19;;;;;;;;;;;;;;;;;;5101034;28;19974;-73
2024/03/14 07:55:46;;;;;;;;;;;;;;;;;;5112373;27;19934;-74
2024/03/14 07:58:12;;;;;;;;;;;;;;;;;;5113576;28;20027;-73
2024/03/14 08:00:38;;;;;;;;;;;;;;;;;;5102037;28;20308;-73
2024/03/14 08:03:05;;;;;;;;;;;;;;;;;;5109419;28;20020;-75
2024/03/14 08:05:31;;;;;;;;;;;;;;;;;;5102056;28;19924;-73
2024/03/14 08:08:01;;;;;;;;;;;;;;;;;;5109698;28;19924;-72
2024/03/14 08:10:35;;;;;;;;;;;;;;;;;;5105413;28;20343;-72
2024/03/14 08:13:04;;;;;;;;;;;;;;;;;;5107259;28;19928;-74
2024/03/14 08:15:36;;;;;;;;;;;;;;;;;;5106849;28;20333;-72
2024/03/14 08:18:04;;;;;;;;;;;;;;;;;;5111314;28;19947;-74
2024/03/14 08:20:36;;;;;;;;;;;;;;;;;;5100087;28;19981;-72
2024/03/14 08:23:04;;;;;;;;;;;;;;;;;;5112785;28;19931;-72
2024/03/14 08:25:30;;;;;;;;;;;;;;;;;;5101294;28;19924;-72
2024/03/14 08:27:57;;;;;;;;;;;;;;;;;;5088156;28;20015;-73
2024/03/14 08:30:27;;;;;;;;;;;;;;;;;;5095115;28;20037;-71
2024/03/14 08:32:54;;;;;;;;;;;;;;;;;;5088195;28;19925;-74
2024/03/14 08:35:20;;;;;;;;;;;;;;;;;;5092416;28;20392;-73
2024/03/14 08:37:47;;;;;;;;;;;;;;;;;;5091055;28;20290;-74
2024/03/14 08:40:13;;;;;;;;;;;;;;;;;;5098138;28;20476;-73
2024/03/14 08:42:41;;;;;;;;;;;;;;;;;;5087000;28;19930;-75
2024/03/14 08:45:14;;;;;;;;;;;;;;;;;;5097826;28;20399;-74
2024/03/14 08:47:40;;;;;;;;;;;;;;;;;;5090735;28;19934;-74
2024/03/14 08:50:09;;;;;;;;;;;;;;;;;;5090385;28;19984;-73
2024/03/14 08:52:37;;;;;;;;;;;;;;;;;;5096960;28;20078;-73
2024/03/14 08:55:23;;;;;;;;;;;;;;;;;;5091678;28;19950;-74
2024/03/14 08:57:49;;;;;;;;;;;;;;;;;;5090090;28;19929;-74
2024/03/14 09:00:17;;;;;;;;;;;;;;;;;;5089447;28;19934;-73
2024/03/14 09:02:44;;;;;;;;;;;;;;;;;;5091204;28;19943;-72
2024/03/14 09:05:14;;;;;;;;;;;;;;;;;;5087941;28;19928;-73
2024/03/14 09:07:41;;;;;;;;;;;;;;;;;;5095306;28;19928;-72
2024/03/14 09:10:16;;;;;;;;;;;;;;;;;;5084545;28;19946;-73
2024/03/14 09:12:43;;;;;;;;;;;;;;;;;;5092100;28;19937;-73
2024/03/14 09:15:09;;;;;;;;;;;;;;;;;;5090508;28;19968;-71
2024/03/14 09:17:36;;;;;;;;;;;;;;;;;;5098125;28;19932;-74
2024/03/14 09:20:06;;;;;;;;;;;;;;;;;;5094844;28;19928;-74
2024/03/14 09:22:32;;;;;;;;;;;;;;;;;;5096270;28;20269;-73
2024/03/14 09:25:01;;;;;;;;;;;;;;;;;;5098683;28;19928;-73
2024/03/14 09:27:27;;;;;;;;;;;;;;;;;;5087528;28;20506;-72
2024/03/14 09:29:55;;;;;;;;;;;;;;;;;;5100709;28;19993;-73
2024/03/14 09:32:23;;;;;;;;;;;;;;;;;;5078780;28;19924;-71
2024/03/14 09:34:50;;;;;;;;;;;;;;;;;;5095437;28;19929;-72
2024/03/14 09:37:16;;;;;;;;;;;;;;;;;;5089508;28;19978;-73
2024/03/14 09:39:43;;;;;;;;;;;;;;;;;;5093263;28;19927;-73
2024/03/14 09:42:10;;;;;;;;;;;;;;;;;;5087711;28;20348;-72
2024/03/14 09:44:36;;;;;;;;;;;;;;;;;;5095233;28;19999;-71
2024/03/14 09:47:03;;;;;;;;;;;;;;;;;;5092522;28;19964;-73
2024/03/14 09:49:30;;;;;;;;;;;;;;;;;;5086308;28;20066;-71
2024/03/14 09:51:56;;;;;;;;;;;;;;;;;;5096271;28;19928;-74
2024/03/14 09:54:26;;;;;;;;;;;;;;;;;;5090852;28;20322;-73
2024/03/14 09:56:53;;;;;;;;;;;;;;;;;;5091122;28;19924;-73
2024/03/14 09:59:20;;;;;;;;;;;;;;;;;;5084214;28;19931;-74
2024/03/14 10:01:46;;;;;;;;;;;;;;;;;;5095369;28;20351;-72
2024/03/14 10:04:13;;;;;;;;;;;;;;;;;;5086829;28;20003;-73
2024/03/14 10:06:40;;;;;;;;;;;;;;;;;;5092643;28;20376;-73
2024/03/14 10:09:11;;;;;;;;;;;;;;;;;;5093251;28;19924;-74
2024/03/14 10:11:45;;;;;;;;;;;;;;;;;;5094188;28;19978;-73
2024/03/14 10:14:21;;;;;;;;;;;;;;;;;;5092982;28;19932;-73
2024/03/14 10:16:50;;;;;;;;;;;;;;;;;;5088229;28;19957;-74
2024/03/14 10:19:16;;;;;;;;;;;;;;;;;;5090154;28;19971;-74
2024/03/14 10:21:43;;;;;;;;;;;;;;;;;;5086531;28;19924;-73
2024/03/14 10:24:09;;;;;;;;;;;;;;;;;;5087188;28;19929;-73
2024/03/14 10:26:37;;;;;;;;;;;;;;;;;;5088973;28;19932;-73
2024/03/14 10:29:03;;;;;;;;;;;;;;;;;;5092699;28;20065;-73
2024/03/14 10:31:30;;;;;;;;;;;;;;;;;;5086768;28;19950;-74
2024/03/14 10:33:56;;;;;;;;;;;;;;;;;;5093977;28;20019;-74
2024/03/14 10:36:25;;;;;;;;;;;;;;;;;;5085439;28;19944;-74
2024/03/14 10:38:52;;;;;;;;;;;;;;;;;;5092079;28;19969;-73
2024/03/14 10:41:21;;;;;;;;;;;;;;;;;;5089378;28;19966;-73
2024/03/14 10:43:47;;;;;;;;;;;;;;;;;;5093349;28;20023;-72
2024/03/14 10:46:15;;;;;;;;;;;;;;;;;;5093197;28;19930;-74
2024/03/14 10:48:44;;;;;;;;;;;;;;;;;;5082172;28;19931;-73
2024/03/14 10:51:11;;;;;;;;;;;;;;;;;;5087727;28;20039;-73
2024/03/14 10:53:39;;;;;;;;;;;;;;;;;;5086693;28;19936;-72
2024/03/14 10:56:06;;;;;;;;;;;;;;;;;;5095241;28;19932;-72
2024/03/14 10:58:32;;;;;;;;;;;;;;;;;;5088756;28;20359;-73
2024/03/14 11:00:59;;;;;;;;;;;;;;;;;;5093831;28;19928;-72
2024/03/14 11:03:26;;;;;;;;;;;;;;;;;;5090412;28;19976;-75
2024/03/14 11:05:52;;;;;;;;;;;;;;;;;;5085143;28;20376;-74
2024/03/14 11:08:19;;;;;;;;;;;;;;;;;;5094922;28;19940;-74
2024/03/14 11:10:46;;;;;;;;;;;;;;;;;;5084409;28;20306;-73
2024/03/14 11:13:13;;;;;;;;;;;;;;;;;;5090528;28;19928;-72
2024/03/14 11:15:39;;;;;;;;;;;;;;;;;;5084195;28;19935;-74
2024/03/14 11:18:06;;;;;;;;;;;;;;;;;;5092025;28;19997;-73
2024/03/14 11:20:33;;;;;;;;;;;;;;;;;;5084480;28;20265;-73
2024/03/14 11:22:59;;;;;;;;;;;;;;;;;;5097075;28;20026;-73
2024/03/14 11:25:26;;;;;;;;;;;;;;;;;;5092853;28;19938;-75
2024/03/14 11:27:52;;;;;;;;;;;;;;;;;;5086358;28;19966;-73
2024/03/14 11:30:21;;;;;;;;;;;;;;;;;;5088538;28;19930;-74
2024/03/14 11:32:49;;;;;;;;;;;;;;;;;;5089263;28;19935;-73
2024/03/14 11:35:15;;;;;;;;;;;;;;;;;;5085186;28;19974;-72
2024/03/14 11:37:42;;;;;;;;;;;;;;;;;;5086706;28;19936;-73
2024/03/14 11:40:10;;;;;;;;;;;;;;;;;;5087403;28;19993;-74
2024/03/14 11:42:36;;;;;;;;;;;;;;;;;;5090811;28;19928;-72
2024/03/14 11:45:03;;;;;;;;;;;;;;;;;;5091919;28;20015;-72
2024/03/14 11:47:29;;;;;;;;;;;;;;;;;;5086168;28;20023;-73
2024/03/14 11:49:55;;;;;;;;;;;;;;;;;;5089704;28;19977;-72
2024/03/14 11:52:22;;;;;;;;;;;;;;;;;;5098352;28;20367;-72
2024/03/14 11:54:49;;;;;;;;;;;;;;;;;;5089836;28;20027;-74
2024/03/14 11:57:15;;;;;;;;;;;;;;;;;;5089625;28;19932;-73
2024/03/14 11:59:45;;;;;;;;;;;;;;;;;;5083512;28;19928;-72
2024/03/14 12:02:19;;;;;;;;;;;;;;;;;;5095493;28;19972;-75
2024/03/14 12:04:47;;;;;;;;;;;;;;;;;;5088537;28;19928;-73
2024/03/14 12:07:13;;;;;;;;;;;;;;;;;;5090559;28;19936;-73
2024/03/14 12:09:41;;;;;;;;;;;;;;;;;;5089422;28;19928;-73
2024/03/14 12:12:07;;;;;;;;;;;;;;;;;;5097633;28;20372;-73
2024/03/14 12:14:33;;;;;;;;;;;;;;;;;;5095155;28;20264;-73
2024/03/14 12:17:00;;;;;;;;;;;;;;;;;;5095939;28;19934;-73
2024/03/14 12:19:27;;;;;;;;;;;;;;;;;;5095933;28;19930;-74
2024/03/14 12:21:53;;;;;;;;;;;;;;;;;;5095462;28;19934;-72
2024/03/14 12:24:20;;;;;;;;;;;;;;;;;;5100977;28;19955;-72
2024/03/14 12:26:46;;;;;;;;;;;;;;;;;;5092276;28;20459;-71
2024/03/14 12:29:13;;;;;;;;;;;;;;;;;;5094066;28;20094;-75
2024/03/14 12:31:40;;;;;;;;;;;;;;;;;;5086427;28;19924;-73
2024/03/14 12:34:07;;;;;;;;;;;;;;;;;;5095723;28;20046;-74
2024/03/14 12:36:33;;;;;;;;;;;;;;;;;;5093243;28;19933;-71
2024/03/14 12:39:00;;;;;;;;;;;;;;;;;;5093354;28;19928;-75
2024/03/14 12:41:27;;;;;;;;;;;;;;;;;;5093429;28;20392;-72
2024/03/14 12:43:53;;;;;;;;;;;;;;;;;;5095665;28;19924;-73
2024/03/14 12:46:22;;;;;;;;;;;;;;;;;;5097601;28;20019;-74
2024/03/14 12:48:49;;;;;;;;;;;;;;;;;;5084724;28;19929;-73
2024/03/14 12:51:16;;;;;;;;;;;;;;;;;;5087831;28;19943;-73
2024/03/14 12:53:43;;;;;;;;;;;;;;;;;;5096931;28;19924;-73
2024/03/14 12:56:10;;;;;;;;;;;;;;;;;;5092960;28;19924;-73
2024/03/14 12:58:37;;;;;;;;;;;;;;;;;;5091117;28;20253;-73
2024/03/14 13:01:04;;;;;;;;;;;;;;;;;;5090202;28;19924;-73
2024/03/14 13:03:31;;;;;;;;;;;;;;;;;;5097012;28;20380;-72
2024/03/14 13:06:00;;;;;;;;;;;;;;;;;;5101443;28;19924;-74
2024/03/14 13:08:28;;;;;;;;;;;;;;;;;;5092547;28;19924;-73
2024/03/14 13:10:55;;;;;;;;;;;;;;;;;;5093590;28;20269;-73
2024/03/14 13:13:21;;;;;;;;;;;;;;;;;;5089032;28;19928;-74
2024/03/14 13:15:50;;;;;;;;;;;;;;;;;;5090106;28;19979;-73
2024/03/14 13:18:16;;;;;;;;;;;;;;;;;;5096934;28;19927;-74
2024/03/14 13:20:43;;;;;;;;;;;;;;;;;;5090890;28;19924;-74
2024/03/14 13:23:12;;;;;;;;;;;;;;;;;;5093739;28;19934;-73
2024/03/14 13:25:42;;;;;;;;;;;;;;;;;;5091908;28;19946;-75
2024/03/14 13:28:09;;;;;;;;;;;;;;;;;;5090684;28;20566;-73
2024/03/14 13:30:36;;;;;;;;;;;;;;;;;;5095636;28;19928;-73
2024/03/14 13:33:09;;;;;;;;;;;;;;;;;;5087490;28;19924;-74
2024/03/14 13:35:39;;;;;;;;;;;;;;;;;;5094549;28;19928;-73
2024/03/14 13:38:06;;;;;;;;;;;;;;;;;;5091882;28;19985;-73
2024/03/14 13:40:32;;;;;;;;;;;;;;;;;;5077145;28;20004;-73
2024/03/14 13:43:01;;;;;;;;;;;;;;;;;;5090276;28;19924;-73
2024/03/14 13:45:28;;;;;;;;;;;;;;;;;;5080404;28;19962;-73
2024/03/14 13:47:55;;;;;;;;;;;;;;;;;;5098344;28;20325;-72
2024/03/14 13:50:21;;;;;;;;;;;;;;;;;;5098374;28;19947;-72
2024/03/14 13:52:48;;;;;;;;;;;;;;;;;;5092724;28;20372;-73
2024/03/14 13:55:33;;;;;;;;;;;;;;;;;;5092524;28;19924;-72
2024/03/14 13:58:01;;;;;;;;;;;;;;;;;;5092572;28;19980;-72
2024/03/14 14:00:45;;;;;;;;;;;;;;;;;;5087052;28;19924;-73
2024/03/14 14:03:12;;;;;;;;;;;;;;;;;;5073727;28;20019;-72
2024/03/14 14:05:38;;;;;;;;;;;;;;;;;;5090647;28;20411;-74
2024/03/14 14:08:05;;;;;;;;;;;;;;;;;;5088570;28;20312;-71
2024/03/14 14:10:32;;;;;;;;;;;;;;;;;;5094615;28;19976;-72
2024/03/14 14:12:58;;;;;;;;;;;;;;;;;;5095122;28;19928;-72
2024/03/14 14:15:25;;;;;;;;;;;;;;;;;;5099787;28;19924;-73
2024/03/14 14:17:51;;;;;;;;;;;;;;;;;;5091677;28;19985;-72
2024/03/14 14:20:19;;;;;;;;;;;;;;;;;;5088420;28;19974;-74
2024/03/14 14:22:45;;;;;;;;;;;;;;;;;;5093399;28;19957;-75
2024/03/14 14:25:12;;;;;;;;;;;;;;;;;;5087295;28;19963;-76
2024/03/14 14:27:40;;;;;;;;;;;;;;;;;;5083193;28;19942;-76
2024/03/14 14:30:06;;;;;;;;;;;;;;;;;;5085712;28;19945;-76
2024/03/14 14:32:32;;;;;;;;;;;;;;;;;;5089824;28;19928;-76
2024/03/14 14:34:59;;;;;;;;;;;;;;;;;;5088621;28;19932;-75
2024/03/14 14:37:25;;;;;;;;;;;;;;;;;;5086652;28;19933;-75
2024/03/14 14:39:52;;;;;;;;;;;;;;;;;;5088700;28;19946;-76
2024/03/14 14:42:18;;;;;;;;;;;;;;;;;;5090827;28;19924;-72
2024/03/14 14:44:47;;;;;;;;;;;;;;;;;;5082490;28;19928;-76
2024/03/14 14:47:14;;;;;;;;;;;;;;;;;;5092137;28;19971;-75
2024/03/14 14:49:41;;;;;;;;;;;;;;;;;;5096979;28;19931;-75
2024/03/14 14:52:08;;;;;;;;;;;;;;;;;;5096153;28;19959;-75
2024/03/14 14:54:36;;;;;;;;;;;;;;;;;;5087614;28;19954;-76
2024/03/14 14:57:03;;;;;;;;;;;;;;;;;;5095065;28;19928;-76
2024/03/14 14:59:29;;;;;;;;;;;;;;;;;;5086252;28;19976;-75
2024/03/14 15:01:58;;;;;;;;;;;;;;;;;;5095134;28;19928;-75
2024/03/14 15:04:27;;;;;;;;;;;;;;;;;;5091238;28;20013;-75
2024/03/14 15:06:53;;;;;;;;;;;;;;;;;;5097773;28;19934;-75
2024/03/14 15:09:22;;;;;;;;;;;;;;;;;;5096512;28;19962;-75
2024/03/14 15:11:50;;;;;;;;;;;;;;;;;;5088490;28;19942;-76
2024/03/14 15:14:16;;;;;;;;;;;;;;;;;;5097097;28;19928;-76
2024/03/14 15:16:43;;;;;;;;;;;;;;;;;;5088584;28;19952;-75
2024/03/14 15:19:10;;;;;;;;;;;;;;;;;;5088765;28;19966;-74
2024/03/14 15:21:38;;;;;;;;;;;;;;;;;;5083653;28;19928;-76
2024/03/14 15:24:05;;;;;;;;;;;;;;;;;;5093778;28;20606;-76
2024/03/14 15:26:32;;;;;;;;;;;;;;;;;;5090780;28;19927;-76
2024/03/14 15:29:01;;;;;;;;;;;;;;;;;;5089581;28;19924;-76
2024/03/14 15:31:28;;;;;;;;;;;;;;;;;;5089827;28;19924;-74
2024/03/14 15:33:56;;;;;;;;;;;;;;;;;;5087139;28;20245;-75
2024/03/14 15:36:22;;;;;;;;;;;;;;;;;;5094211;28;20434;-75
2024/03/14 15:38:48;;;;;;;;;;;;;;;;;;5089454;28;19927;-76
2024/03/14 15:41:15;;;;;;;;;;;;;;;;;;5092579;28;20265;-76
2024/03/14 15:43:42;;;;;;;;;;;;;;;;;;5088855;28;19927;-75
2024/03/14 15:46:08;;;;;;;;;;;;;;;;;;5093554;28;19928;-75
2024/03/14 15:48:36;;;;;;;;;;;;;;;;;;5090320;28;20356;-75
2024/03/14 15:51:02;;;;;;;;;;;;;;;;;;5093471;28;19935;-75
2024/03/14 15:53:32;;;;;;;;;;;;;;;;;;5091596;28;19928;-75
2024/03/14 15:55:59;;;;;;;;;;;;;;;;;;5097220;28;19928;-75
2024/03/14 15:58:29;;;;;;;;;;;;;;;;;;5100182;28;19928;-75
2024/03/14 16:00:57;;;;;;;;;;;;;;;;;;5098771;28;20388;-75
2024/03/14 16:03:23;;;;;;;;;;;;;;;;;;5097138;28;19928;-75
2024/03/14 16:05:50;;;;;;;;;;;;;;;;;;5089326;28;19928;-75
2024/03/14 16:08:17;;;;;;;;;;;;;;;;;;5093022;28;19924;-75
2024/03/14 16:10:51;;;;;;;;;;;;;;;;;;5094177;28;20026;-75
2024/03/14 16:13:18;;;;;;;;;;;;;;;;;;5093398;28;19973;-76
2024/03/14 16:15:45;;;;;;;;;;;;;;;;;;5093427;28;19924;-75
2024/03/14 16:18:11;;;;;;;;;;;;;;;;;;5094485;28;19935;-75
2024/03/14 16:20:39;;;;;;;;;;;;;;;;;;5094616;28;19928;-75
2024/03/14 16:23:05;;;;;;;;;;;;;;;;;;5094309;28;20079;-75
2024/03/14 16:25:34;;;;;;;;;;;;;;;;;;5099489;28;19924;-75
2024/03/14 16:28:01;;;;;;;;;;;;;;;;;;5092440;28;20539;-75
2024/03/14 16:30:29;;;;;;;;;;;;;;;;;;5099127;28;19928;-75
2024/03/14 16:32:57;;;;;;;;;;;;;;;;;;5094085;28;19943;-76
2024/03/14 16:35:31;;;;;;;;;;;;;;;;;;5098966;28;19935;-74
2024/03/14 16:38:01;;;;;;;;;;;;;;;;;;5096878;28;19927;-75
2024/03/14 16:40:28;;;;;;;;;;;;;;;;;;5095078;28;19928;-75
2024/03/14 16:42:54;;;;;;;;;;;;;;;;;;5088260;28;20340;-75
2024/03/14 16:45:22;;;;;;;;;;;;;;;;;;5098067;28;20067;-75
2024/03/14 16:47:49;;;;;;;;;;;;;;;;;;5094378;28;19931;-74
2024/03/14 16:50:16;;;;;;;;;;;;;;;;;;5100795;28;19959;-75